• Join FlightAware (Why Join?)
  • Login
  • US Flag GB Flag 
07:43 EDT


 

Airport Tracker/Info


-or-


 

Live Flight TrackerFlight Track Log ✈ DAL6067 ✈ 12-Apr-2013 ✈ KDTW - KCMH

Flight Track Log - Related Links

Times and Time Zones

All times are in EDT time to prevent confusion due to time zone crossing. See the DAL6067 flight status page for this flight to view local times or setup timezone preferences in your user account.

Time Position Orientation Groundspeed Altitude Reporting Facility
EDT Latitude Longitude Course Direction KTS MPH feet Rate Location/Type
12:11 42.2017 -83.3553 190° South 148 170 1,400  Level Cleveland Center
12:12 42.1703 -83.3625 190° South 184 212 2,900 2,100 Climbing Cleveland Center
12:13 42.1117 -83.3739 188° South 224 258 5,100 2,220 Climbing Cleveland Center
12:14 42.0508 -83.3853 188° South 241 277 7,500 2,220 Climbing Cleveland Center
12:15 41.9906 -83.3769 174° South 249 287 9,500 1,920 Climbing Cleveland Center
12:16 41.9156 -83.3708 177° South 271 312 11,200 1,620 Climbing Cleveland Center
12:17 41.8283 -83.3586 174° South 277 319 12,800 1,380 Climbing Cleveland Center
12:18 41.7411 -83.3494 176° South 298 343 14,000 600 Climbing Cleveland Center
12:19 41.6494 -83.3428 177° South 312 359 14,000  Level Cleveland Center
12:20 41.5619 -83.3361 177° South 325 374 14,000  Level Cleveland Center
12:21 41.4767 -83.3269 175° South 325 374 14,000  Level Cleveland Center
12:22 41.3894 -83.3178 175° South 325 374 14,000  Level Cleveland Center
12:23 41.3042 -83.3142 178° South 319 367 14,000  Level Cleveland Center
12:24 41.2186 -83.3050 175° South 313 360 14,000  Level Cleveland Center
12:25 41.1356 -83.2989 177° South 307 353 14,000  Level Cleveland Center
12:26 41.0503 -83.2897 175° South 307 353 14,000 -600 Level Cleveland Center
12:27 40.9628 -83.2806 175° South 313 360 12,900 -1,080 Descending Cleveland Center
12:28 40.8881 -83.2747 177° South 308 354 11,900 -1,080 Descending Cleveland Center
12:29 40.8006 -83.2686 177° South 308 354 10,800 -840 Descending Cleveland Center
12:31 40.6728 -83.2589 177° South 310 357 9,900 -360 Descending Indianapolis Center
12:32 40.5914 -83.2511 176° South 298 343 9,900  Level Indianapolis Center
12:33 40.4972 -83.2328 172° South 295 339 9,900  Level Indianapolis Center
12:34 40.4222 -83.1800 152° Southeast 304 350 9,900  Level Indianapolis Center
12:34 40.3675 -83.1436 153° Southeast 308 354 10,000  Climbing Indianapolis Center
12:35 40.3458 -83.1283 152° Southeast 305 351 9,900  Descending Indianapolis Center
12:35 40.2917 -83.0908 152° Southeast 311 358 10,000  Climbing Indianapolis Center
12:36 40.2681 -83.0753 153° Southeast 309 356 9,900  Descending Indianapolis Center
12:36 40.2136 -83.0381 152° Southeast 311 358 10,000 -300 Climbing Indianapolis Center
12:37 40.1922 -83.0228 151° Southeast 303 349 9,600 -1,620 Descending Indianapolis Center
12:37 40.1547 -82.9822 140° Southeast 278 320 8,400 -1,680 Descending Indianapolis Center
12:38 40.1444 -82.9469 111° Southeast 301 346 7,900 -1,560 Descending Indianapolis Center
12:39 40.1197 -82.8461 108° East 292 336 6,200 -1,740 Descending Indianapolis Center
12:40 40.0981 -82.7631 109° East 270 311 4,800 -1,560 Descending Indianapolis Center
12:40 40.0819 -82.6931 107° East 255 293 3,700 -1,320 Descending Indianapolis Center
12:41 40.0706 -82.6650 118° Southeast 265 305 3,200 -720 Descending Indianapolis Center
12:41 40.0361 -82.6581 171° South 189 217 3,000 -300 Descending Indianapolis Center
12:42 40.0175 -82.6561 175° South 214 246 2,900  Descending Indianapolis Center
12:42 39.9972 -82.6756 216° Southwest 169 194 3,000  Climbing Indianapolis Center
12:43 39.9933 -82.7042 260° West 192 221 2,900 -300 Descending Indianapolis Center
12:43 39.9942 -82.7542 271° West 190 219 2,700 -600 Descending Indianapolis Center
12:44 39.9958 -82.7819 274° West 185 213 2,300 -840 Descending Indianapolis Center
12:44 39.9969 -82.8061 273° West 141 162 1,900 -720 Descending Indianapolis Center
12:45 39.9981 -82.8289 274° West 149 171 1,600 -720 Descending Indianapolis Center
12:45 40.0000 -82.8556 275° West 122 140 1,200 -420 Descending Indianapolis Center
12:46 40.0019 -82.8769 277° West 139 160 1,200  Level Indianapolis Center